createdAt,value
2023-04-12T00:01:39.384Z,2.01
2023-04-12T00:04:11.214Z,1.88
2023-04-12T00:06:43.195Z,1.95
2023-04-12T00:09:15.494Z,2.23
2023-04-12T00:11:47.154Z,2.03
2023-04-12T00:14:18.720Z,2.03
2023-04-12T00:16:50.381Z,1.95
2023-04-12T00:19:22.025Z,2.17
2023-04-12T00:21:53.751Z,2.41
2023-04-12T00:24:25.554Z,1.89
2023-04-12T00:26:57.186Z,1.91
2023-04-12T00:29:28.853Z,1.99
2023-04-12T00:32:00.822Z,2.01
2023-04-12T00:34:32.419Z,1.82
2023-04-12T00:37:04.036Z,1.81
2023-04-12T00:39:35.630Z,1.76
2023-04-12T00:42:07.232Z,1.78
2023-04-12T00:44:38.822Z,1.82
2023-04-12T00:47:10.448Z,1.85
2023-04-12T00:49:42.176Z,1.59
2023-04-12T00:52:13.810Z,1.85
2023-04-12T00:54:45.943Z,1.82
2023-04-12T00:57:17.614Z,1.62
2023-04-12T00:59:49.198Z,1.79
2023-04-12T01:02:21.727Z,2.01
2023-04-12T01:04:53.925Z,2.58
2023-04-12T01:07:47.700Z,2.77
2023-04-12T01:10:28.430Z,3.12
2023-04-12T01:13:10.707Z,3.14
2023-04-12T01:15:55.955Z,3.64
2023-04-12T01:18:36.893Z,3.68
2023-04-12T01:21:14.965Z,3.69
2023-04-12T01:24:15.211Z,3.71
2023-04-12T01:26:50.660Z,3.39
2023-04-12T01:29:25.545Z,3.27
2023-04-12T01:32:03.848Z,3.01
2023-04-12T01:34:39.102Z,3.00
2023-04-12T01:37:12.998Z,3.09
2023-04-12T01:39:45.055Z,2.82
2023-04-12T01:42:20.480Z,2.83
2023-04-12T01:44:52.763Z,2.94
2023-04-12T01:47:25.127Z,2.86
2023-04-12T01:50:22.623Z,2.62
2023-04-12T01:53:06.150Z,2.63
2023-04-12T01:55:41.327Z,2.76
2023-04-12T01:58:20.888Z,2.65
2023-04-12T02:00:54.433Z,2.81
2023-04-12T02:03:27.916Z,2.45
2023-04-12T02:06:03.909Z,2.59
2023-04-12T02:08:38.337Z,2.43
2023-04-12T02:11:11.081Z,2.24
2023-04-12T02:13:43.043Z,2.43
2023-04-12T02:16:15.785Z,2.61
2023-04-12T02:18:47.626Z,2.57
2023-04-12T02:21:19.784Z,2.97
2023-04-12T02:23:52.037Z,2.69
2023-04-12T02:26:23.732Z,2.83
2023-04-12T02:28:56.351Z,2.77
2023-04-12T02:31:28.279Z,2.92
2023-04-12T02:34:03.182Z,2.60
2023-04-12T02:36:35.592Z,2.73
2023-04-12T02:39:07.993Z,2.42
2023-04-12T02:41:40.254Z,2.50
2023-04-12T02:44:16.704Z,2.39
2023-04-12T02:46:55.586Z,2.59
2023-04-12T02:49:27.914Z,2.46
2023-04-12T02:52:00.850Z,2.86
2023-04-12T02:54:40.100Z,2.69
2023-04-12T02:57:16.156Z,2.61
2023-04-12T02:59:52.005Z,2.49
2023-04-12T03:02:41.231Z,2.53
2023-04-12T03:05:18.980Z,2.37
2023-04-12T03:07:50.658Z,2.32
2023-04-12T03:10:27.428Z,2.42
2023-04-12T03:13:06.017Z,2.25
2023-04-12T03:15:40.679Z,2.17
2023-04-12T03:18:12.585Z,2.33
2023-04-12T03:20:50.890Z,2.39
2023-04-12T03:23:22.496Z,2.36
2023-04-12T03:26:07.495Z,2.39
2023-04-12T03:28:40.978Z,2.23
2023-04-12T03:31:13.269Z,2.11
2023-04-12T03:33:47.448Z,2.18
2023-04-12T03:36:29.026Z,2.27
2023-04-12T03:39:08.398Z,2.07
2023-04-12T03:41:42.969Z,2.17
2023-04-12T03:44:14.582Z,2.13
2023-04-12T03:46:47.675Z,2.05
2023-04-12T03:49:22.288Z,2.07
2023-04-12T03:51:54.256Z,2.08
2023-04-12T03:54:26.541Z,1.93
2023-04-12T03:57:03.555Z,2.10
2023-04-12T03:59:45.773Z,2.17
2023-04-12T04:02:19.563Z,2.03
2023-04-12T04:04:54.014Z,2.18
2023-04-12T04:07:31.420Z,2.02
2023-04-12T04:10:03.706Z,2.09
2023-04-12T04:12:42.239Z,2.15
2023-04-12T04:15:16.783Z,2.05
2023-04-12T04:17:49.024Z,2.28
2023-04-12T04:20:24.514Z,2.24
2023-04-12T04:22:57.755Z,2.19
2023-04-12T04:25:30.433Z,2.26
2023-04-12T04:28:09.187Z,2.08
2023-04-12T04:30:40.874Z,2.35
2023-04-12T04:33:17.513Z,2.28
2023-04-12T04:35:49.916Z,2.10
2023-04-12T04:38:31.105Z,2.34
2023-04-12T04:41:11.044Z,2.30
2023-04-12T04:43:57.679Z,2.41
2023-04-12T04:46:32.857Z,2.41
2023-04-12T04:49:05.676Z,2.40
2023-04-12T04:51:37.597Z,2.47
2023-04-12T04:54:09.316Z,2.35
2023-04-12T04:56:44.704Z,2.56
2023-04-12T04:59:19.734Z,2.55
2023-04-12T05:01:51.632Z,2.22
2023-04-12T05:04:23.449Z,2.29
2023-04-12T05:06:55.104Z,2.44
2023-04-12T05:09:30.567Z,2.41
2023-04-12T05:12:02.324Z,2.29
2023-04-12T05:14:46.787Z,2.53
2023-04-12T05:17:19.901Z,2.14
2023-04-12T05:19:51.847Z,2.20
2023-04-12T05:22:23.434Z,2.38
2023-04-12T05:24:55.385Z,2.48
2023-04-12T05:27:27.473Z,2.24
2023-04-12T05:29:59.819Z,2.43
2023-04-12T05:32:31.819Z,2.58
2023-04-12T05:35:04.622Z,2.40
2023-04-12T05:37:36.662Z,2.92
2023-04-12T05:40:09.145Z,2.65
2023-04-12T05:42:42.285Z,3.09
2023-04-12T05:45:13.924Z,2.97
2023-04-12T05:47:48.313Z,3.03
2023-04-12T05:50:20.159Z,2.66
2023-04-12T05:52:51.791Z,2.74
2023-04-12T05:55:25.942Z,2.55
2023-04-12T05:57:57.971Z,2.69
2023-04-12T06:00:31.626Z,2.74
2023-04-12T06:03:03.505Z,2.41
2023-04-12T06:05:35.444Z,2.59
2023-04-12T06:08:07.804Z,2.62
2023-04-12T06:10:39.449Z,2.41
2023-04-12T06:13:11.043Z,2.88
2023-04-12T06:15:46.476Z,2.33
2023-04-12T06:18:18.099Z,2.42
2023-04-12T06:20:50.530Z,2.51
2023-04-12T06:23:22.280Z,2.63
2023-04-12T06:26:38.968Z,2.88
2023-04-12T06:29:18.773Z,2.32
2023-04-12T06:31:51.559Z,2.34
2023-04-12T06:34:23.246Z,2.64
2023-04-12T06:36:56.333Z,2.51
2023-04-12T06:39:28.057Z,2.51
2023-04-12T06:41:59.713Z,2.52
2023-04-12T06:44:31.498Z,2.58
2023-04-12T06:47:03.240Z,2.39
2023-04-12T06:49:35.274Z,2.23
2023-04-12T06:52:07.062Z,2.27
2023-04-12T06:54:39.438Z,2.33
2023-04-12T06:57:11.342Z,2.11
2023-04-12T06:59:43.007Z,2.41
2023-04-12T07:02:14.716Z,2.42
2023-04-12T07:04:46.378Z,2.35
2023-04-12T07:07:17.973Z,2.26
2023-04-12T07:09:49.692Z,2.02
2023-04-12T07:12:21.971Z,2.16
2023-04-12T07:14:53.659Z,1.98
2023-04-12T07:17:25.440Z,1.95
2023-04-12T07:19:57.333Z,2.27
2023-04-12T07:22:28.987Z,2.04
2023-04-12T07:25:00.707Z,1.79
2023-04-12T07:27:32.305Z,1.92
2023-04-12T07:30:06.664Z,1.70
2023-04-12T07:32:38.363Z,1.75
2023-04-12T07:35:10.214Z,1.71
2023-04-12T07:37:41.835Z,1.60
2023-04-12T07:40:13.461Z,1.66
2023-04-12T07:42:45.046Z,1.93
2023-04-12T07:45:21.682Z,1.77
2023-04-12T07:47:53.301Z,1.77
2023-04-12T07:50:24.953Z,1.76
2023-04-12T07:53:21.389Z,1.82
2023-04-12T07:55:54.488Z,1.78
2023-04-12T07:58:26.110Z,1.92
2023-04-12T08:00:59.187Z,1.79
2023-04-12T08:03:32.236Z,1.62
2023-04-12T08:06:04.351Z,2.00
2023-04-12T08:08:35.976Z,1.74
2023-04-12T08:11:07.614Z,1.71
2023-04-12T08:13:39.260Z,1.80
2023-04-12T08:16:10.970Z,1.73
2023-04-12T08:18:42.726Z,1.90
2023-04-12T08:21:14.333Z,1.88
2023-04-12T08:23:45.947Z,1.92
2023-04-12T08:26:17.794Z,1.73
2023-04-12T08:28:49.337Z,1.76
2023-04-12T08:31:22.612Z,1.55
2023-04-12T08:33:54.235Z,1.93
2023-04-12T08:36:26.382Z,1.95
2023-04-12T08:39:01.234Z,2.00
2023-04-12T08:41:34.030Z,1.80
2023-04-12T08:44:05.929Z,1.81
2023-04-12T08:46:37.655Z,1.79
2023-04-12T08:49:10.362Z,1.83
2023-04-12T08:51:43.160Z,1.79
2023-04-12T08:54:14.756Z,1.71
2023-04-12T08:56:48.026Z,1.85
2023-04-12T08:59:20.484Z,1.72
2023-04-12T09:01:54.255Z,1.64
2023-04-12T09:04:26.496Z,1.69
2023-04-12T09:06:58.424Z,1.71
2023-04-12T09:09:46.718Z,1.58
2023-04-12T09:12:18.448Z,1.81
2023-04-12T09:15:15.214Z,1.83
2023-04-12T09:17:46.900Z,2.03
2023-04-12T09:20:18.659Z,1.91
2023-04-12T09:22:50.713Z,1.63
2023-04-12T09:25:43.174Z,1.84
2023-04-12T09:28:26.632Z,1.66
2023-04-12T09:30:59.998Z,1.81
2023-04-12T09:33:39.665Z,1.84
2023-04-12T09:36:11.876Z,1.83
2023-04-12T09:38:59.550Z,1.88
2023-04-12T09:41:31.621Z,1.92
2023-04-12T09:44:03.286Z,1.95
2023-04-12T09:46:34.947Z,1.71
2023-04-12T09:49:06.778Z,1.59
2023-04-12T09:51:39.024Z,1.92
2023-04-12T09:54:10.729Z,1.82
2023-04-12T09:56:44.883Z,1.85
2023-04-12T09:59:19.011Z,1.72
2023-04-12T10:01:52.631Z,1.95
2023-04-12T10:04:25.715Z,2.11
2023-04-12T10:07:01.691Z,1.90
2023-04-12T10:09:34.425Z,1.98
2023-04-12T10:12:07.953Z,1.99
2023-04-12T10:14:42.110Z,2.05
2023-04-12T10:17:14.223Z,2.09
2023-04-12T10:19:48.402Z,1.89
2023-04-12T10:22:20.079Z,2.16
2023-04-12T10:24:51.734Z,1.96
2023-04-12T10:27:27.189Z,2.00
2023-04-12T10:30:30.884Z,2.12
2023-04-12T10:33:02.523Z,2.04
2023-04-12T10:35:52.870Z,2.09
2023-04-12T10:38:25.608Z,1.84
2023-04-12T10:41:18.652Z,1.94
2023-04-12T10:44:13.013Z,1.95
2023-04-12T10:46:44.576Z,2.15
2023-04-12T10:49:17.636Z,2.26
2023-04-12T10:52:08.781Z,2.08
2023-04-12T10:54:40.529Z,2.07
2023-04-12T10:57:48.947Z,1.93
2023-04-12T11:00:22.377Z,1.85
2023-04-12T11:03:08.146Z,1.87
2023-04-12T11:05:59.103Z,2.11
2023-04-12T11:08:55.581Z,2.16
2023-04-12T11:11:35.110Z,2.12
2023-04-12T11:14:10.115Z,1.99
2023-04-12T11:17:06.357Z,1.97
2023-04-12T11:19:46.850Z,1.95
2023-04-12T11:22:22.691Z,2.04
2023-04-12T11:25:02.149Z,2.06
2023-04-12T11:27:33.864Z,2.19
2023-04-12T11:30:06.245Z,2.14
2023-04-12T11:32:45.707Z,2.18
2023-04-12T11:35:17.689Z,2.31
2023-04-12T11:37:49.562Z,1.96
2023-04-12T11:40:22.348Z,2.18
2023-04-12T11:42:54.182Z,1.89
2023-04-12T11:45:26.101Z,2.28
2023-04-12T11:47:57.869Z,2.12
2023-04-12T11:50:31.373Z,2.06
2023-04-12T11:53:11.432Z,2.00
2023-04-12T11:55:48.738Z,2.04
2023-04-12T11:58:26.339Z,2.13
2023-04-12T12:00:58.126Z,2.08
2023-04-12T12:03:30.035Z,2.02
2023-04-12T12:06:02.435Z,1.92
2023-04-12T12:08:34.931Z,1.97
2023-04-12T12:11:08.885Z,2.62
2023-04-12T12:13:52.248Z,2.32
2023-04-12T12:16:26.607Z,2.08
2023-04-12T12:18:58.343Z,2.05
2023-04-12T12:21:30.581Z,1.97
2023-04-12T12:24:02.292Z,2.09
2023-04-12T12:26:35.939Z,2.19
2023-04-12T12:29:07.545Z,2.17
2023-04-12T12:31:46.264Z,2.10
2023-04-12T12:34:17.901Z,2.25
2023-04-12T12:36:55.002Z,2.45
2023-04-12T12:39:26.617Z,2.03
2023-04-12T12:41:58.227Z,2.06
2023-04-12T12:44:29.822Z,2.08
2023-04-12T12:47:13.183Z,1.90
2023-04-12T12:49:45.754Z,2.06
2023-04-12T12:52:17.973Z,2.05
2023-04-12T12:54:49.722Z,1.95
2023-04-12T12:57:21.358Z,1.71
2023-04-12T12:59:52.973Z,1.91
2023-04-12T13:02:24.579Z,1.81
2023-04-12T13:04:56.416Z,1.70
2023-04-12T13:07:28.095Z,1.73
2023-04-12T13:10:00.301Z,1.63
2023-04-12T13:12:32.161Z,1.62
2023-04-12T13:15:20.367Z,1.63
2023-04-12T13:17:55.418Z,1.70
2023-04-12T13:20:27.212Z,1.51
2023-04-12T13:22:58.811Z,1.68
2023-04-12T13:25:30.398Z,1.70
2023-04-12T13:28:02.057Z,1.87
2023-04-12T13:30:33.616Z,1.63
2023-04-12T13:33:05.380Z,1.86
2023-04-12T13:35:37.050Z,1.83
2023-04-12T13:38:08.632Z,1.77
2023-04-12T13:40:40.293Z,1.93
2023-04-12T13:43:11.952Z,1.80
2023-04-12T13:45:43.783Z,2.11
2023-04-12T13:48:15.484Z,1.95
2023-04-12T13:50:49.729Z,2.12
2023-04-12T13:53:22.256Z,2.23
2023-04-12T13:55:53.882Z,2.12
2023-04-12T13:58:25.444Z,2.38
2023-04-12T14:00:57.046Z,2.78
2023-04-12T14:03:28.746Z,2.80
2023-04-12T14:06:00.704Z,2.80
2023-04-12T14:08:32.295Z,3.05
2023-04-12T14:11:04.017Z,3.02
2023-04-12T14:13:35.621Z,3.05
2023-04-12T14:16:07.420Z,3.07
2023-04-12T14:18:38.998Z,2.99
2023-04-12T14:21:10.616Z,3.21
2023-04-12T14:23:42.222Z,3.13
2023-04-12T14:26:14.541Z,2.97
2023-04-12T14:28:46.192Z,3.34
2023-04-12T14:31:17.815Z,3.35
2023-04-12T14:33:49.363Z,3.42
2023-04-12T14:36:20.940Z,3.44
2023-04-12T14:38:52.532Z,3.45
2023-04-12T14:41:24.133Z,3.33
2023-04-12T14:43:56.227Z,3.24
2023-04-12T14:46:28.631Z,3.01
2023-04-12T14:49:00.558Z,3.19
2023-04-12T14:51:32.269Z,2.99
2023-04-12T14:54:03.939Z,3.30
2023-04-12T14:56:41.976Z,3.12
2023-04-12T14:59:16.646Z,2.90
2023-04-12T15:01:48.387Z,3.22
2023-04-12T15:04:20.346Z,2.96
2023-04-12T15:06:52.025Z,3.00
2023-04-12T15:09:23.622Z,3.01
2023-04-12T15:11:55.210Z,3.10
2023-04-12T15:14:27.853Z,2.36
2023-04-12T15:16:59.382Z,1.29
2023-04-12T15:19:31.643Z,0.88
2023-04-12T15:22:03.272Z,0.86
2023-04-12T15:24:34.896Z,0.78
2023-04-12T15:27:06.853Z,0.80
2023-04-12T15:29:38.473Z,1.00
2023-04-12T15:32:10.113Z,1.14
2023-04-12T15:34:42.080Z,1.65
2023-04-12T15:37:13.746Z,1.88
2023-04-12T15:39:45.819Z,1.98
2023-04-12T15:42:17.549Z,1.94
2023-04-12T15:44:49.130Z,1.99
2023-04-12T15:47:21.192Z,1.94
2023-04-12T15:49:53.518Z,1.85
2023-04-12T15:52:25.168Z,1.97
2023-04-12T15:54:56.862Z,2.21
2023-04-12T15:57:28.551Z,2.24
2023-04-12T16:00:00.365Z,2.46
2023-04-12T16:02:32.256Z,2.48
2023-04-12T16:05:04.283Z,3.36
2023-04-12T16:07:35.913Z,3.57
2023-04-12T16:10:08.285Z,4.02
2023-04-12T16:12:40.255Z,4.05
2023-04-12T16:15:12.342Z,4.05
2023-04-12T16:17:44.281Z,4.32
2023-04-12T16:20:16.174Z,5.23
2023-04-12T16:22:49.453Z,6.59
2023-04-12T16:25:26.157Z,7.83
2023-04-12T16:27:57.764Z,5.60
2023-04-12T16:30:31.095Z,5.11
2023-04-12T16:33:02.865Z,5.80
2023-04-12T16:35:34.585Z,6.88
2023-04-12T16:38:06.139Z,6.22
2023-04-12T16:40:37.774Z,5.07
2023-04-12T16:43:09.344Z,6.09
2023-04-12T16:45:41.037Z,3.81
2023-04-12T16:48:13.426Z,3.27
2023-04-12T16:50:45.136Z,4.22
2023-04-12T16:53:16.880Z,5.88
2023-04-12T16:55:48.521Z,11.68
2023-04-12T16:58:20.139Z,8.07
2023-04-12T17:00:51.784Z,4.07
2023-04-12T17:03:23.863Z,4.13
2023-04-12T17:05:58.594Z,3.57
2023-04-12T17:08:30.253Z,3.22
2023-04-12T17:11:02.381Z,3.22
2023-04-12T17:13:34.043Z,3.24
2023-04-12T17:16:06.035Z,3.54
2023-04-12T17:18:37.685Z,4.11
2023-04-12T17:21:09.941Z,4.02
2023-04-12T17:23:41.905Z,3.46
2023-04-12T17:26:13.538Z,3.38
2023-04-12T17:28:45.151Z,3.05
2023-04-12T17:31:16.827Z,2.73
2023-04-12T17:33:48.483Z,2.75
2023-04-12T17:36:20.882Z,2.89
2023-04-12T17:38:52.494Z,2.63
2023-04-12T17:41:24.255Z,2.47
2023-04-12T17:43:56.017Z,2.24
2023-04-12T17:46:27.820Z,2.38
2023-04-12T17:48:59.708Z,2.72
2023-04-12T17:51:31.593Z,3.02
2023-04-12T17:54:03.227Z,2.58
2023-04-12T17:56:34.832Z,2.64
2023-04-12T17:59:06.456Z,3.01
2023-04-12T18:01:38.142Z,2.79
2023-04-12T18:04:09.884Z,2.98
2023-04-12T18:06:41.524Z,3.86
2023-04-12T18:09:13.560Z,5.82
2023-04-12T18:11:45.413Z,3.38
2023-04-12T18:14:17.081Z,2.79
2023-04-12T18:16:48.687Z,2.83
2023-04-12T18:19:20.222Z,2.55
2023-04-12T18:21:51.770Z,2.54
2023-04-12T18:24:23.343Z,2.47
2023-04-12T18:26:55.014Z,2.67
2023-04-12T18:29:26.619Z,4.26
2023-04-12T18:31:58.321Z,3.26
2023-04-12T18:34:30.468Z,2.66
2023-04-12T18:37:02.062Z,2.91
2023-04-12T18:39:33.625Z,3.12
2023-04-12T18:42:05.316Z,3.01
2023-04-12T18:44:36.935Z,2.88
2023-04-12T18:47:08.833Z,4.29
2023-04-12T18:49:40.469Z,2.69
2023-04-12T18:52:12.019Z,2.18
2023-04-12T18:54:43.641Z,2.04
2023-04-12T18:57:16.356Z,2.05
2023-04-12T18:59:48.070Z,2.03
2023-04-12T19:02:19.752Z,2.13
2023-04-12T19:04:51.562Z,1.96
2023-04-12T19:07:23.542Z,1.82
2023-04-12T19:09:55.508Z,1.92
2023-04-12T19:12:27.723Z,1.95
2023-04-12T19:14:59.627Z,1.82
2023-04-12T19:17:32.028Z,1.87
2023-04-12T19:20:05.918Z,1.94
2023-04-12T19:22:38.632Z,1.72
2023-04-12T19:25:11.040Z,1.77
2023-04-12T19:27:45.088Z,1.72
2023-04-12T19:30:18.409Z,1.37
2023-04-12T19:32:51.380Z,1.08
2023-04-12T19:35:24.772Z,1.35
2023-04-12T19:37:57.531Z,0.80
2023-04-12T19:40:31.325Z,0.43
2023-04-12T19:43:04.952Z,0.56
2023-04-12T19:45:36.987Z,0.69
2023-04-12T19:48:09.953Z,0.54
2023-04-12T19:50:42.746Z,0.49
2023-04-12T19:53:16.761Z,0.59
2023-04-12T19:55:49.190Z,0.69
2023-04-12T19:58:21.825Z,0.47
2023-04-12T20:00:55.172Z,0.49
2023-04-12T20:03:26.978Z,0.45
2023-04-12T20:05:59.390Z,0.47
2023-04-12T20:08:31.698Z,0.50
2023-04-12T20:11:04.590Z,0.77
2023-04-12T20:13:36.899Z,0.90
2023-04-12T20:16:09.417Z,0.95
2023-04-12T20:18:42.193Z,0.84
2023-04-12T20:21:14.765Z,0.69
2023-04-12T20:23:47.052Z,0.61
2023-04-12T20:26:20.546Z,0.51
2023-04-12T20:28:52.630Z,0.46
2023-04-12T20:31:25.465Z,0.72
2023-04-12T20:33:59.132Z,0.56
2023-04-12T20:36:32.297Z,0.68
2023-04-12T20:39:04.558Z,0.71
2023-04-12T20:41:37.365Z,0.69
2023-04-12T20:44:09.498Z,0.79
2023-04-12T20:46:42.395Z,1.02
2023-04-12T20:49:15.179Z,0.74
2023-04-12T20:51:48.021Z,0.78
2023-04-12T20:54:21.246Z,0.65
2023-04-12T20:56:54.612Z,0.75
2023-04-12T20:59:27.234Z,0.59
2023-04-12T21:01:59.215Z,0.39
2023-04-12T21:04:33.253Z,0.51
2023-04-12T21:07:05.296Z,0.50
2023-04-12T21:09:37.917Z,0.58
2023-04-12T21:12:09.606Z,0.68
2023-04-12T21:14:41.330Z,0.58
2023-04-12T21:17:16.027Z,0.66
2023-04-12T21:19:47.964Z,0.56
2023-04-12T21:22:21.776Z,0.75
2023-04-12T21:24:54.035Z,0.48
2023-04-12T21:27:25.761Z,0.71
2023-04-12T21:29:57.297Z,0.66
2023-04-12T21:32:28.959Z,0.67
2023-04-12T21:35:00.656Z,0.67
2023-04-12T21:37:32.583Z,0.56
2023-04-12T21:40:04.988Z,0.62
2023-04-12T21:42:37.532Z,0.59
2023-04-12T21:45:09.630Z,0.76
2023-04-12T21:47:42.269Z,0.75
2023-04-12T21:50:13.872Z,0.69
2023-04-12T21:52:45.625Z,0.68
2023-04-12T21:55:17.291Z,0.91
2023-04-12T21:57:48.944Z,0.73
2023-04-12T22:00:20.778Z,0.75
2023-04-12T22:02:52.620Z,0.87
2023-04-12T22:05:24.587Z,0.78
2023-04-12T22:07:56.221Z,0.85
2023-04-12T22:10:27.950Z,0.82
2023-04-12T22:12:59.643Z,0.75
2023-04-12T22:15:31.281Z,0.76
2023-04-12T22:18:03.071Z,0.84
2023-04-12T22:20:34.675Z,0.82
2023-04-12T22:23:06.889Z,1.09
2023-04-12T22:25:38.495Z,0.91
2023-04-12T22:28:10.048Z,0.84
2023-04-12T22:30:41.752Z,1.05
2023-04-12T22:33:13.409Z,1.02
2023-04-12T22:35:45.041Z,0.93
2023-04-12T22:38:16.691Z,1.03
2023-04-12T22:40:48.344Z,1.36
2023-04-12T22:43:20.067Z,1.21
2023-04-12T22:45:51.630Z,1.05
2023-04-12T22:48:23.336Z,1.20
2023-04-12T22:50:54.962Z,1.05
2023-04-12T22:53:28.189Z,1.08
2023-04-12T22:55:59.863Z,0.99
2023-04-12T22:58:31.482Z,0.83
2023-04-12T23:01:03.583Z,1.13
2023-04-12T23:03:35.919Z,0.95
2023-04-12T23:06:07.837Z,0.81
2023-04-12T23:08:39.437Z,0.97
2023-04-12T23:11:11.196Z,1.00
2023-04-12T23:13:42.903Z,1.03
2023-04-12T23:16:14.621Z,1.06
2023-04-12T23:18:46.280Z,0.91
2023-04-12T23:21:18.440Z,1.05
2023-04-12T23:23:50.178Z,1.12
2023-04-12T23:26:23.379Z,1.01
2023-04-12T23:28:55.251Z,1.17
2023-04-12T23:31:27.048Z,1.10
2023-04-12T23:34:00.276Z,1.13
2023-04-12T23:36:33.162Z,1.16
2023-04-12T23:39:04.780Z,1.14
2023-04-12T23:41:36.339Z,1.15
2023-04-12T23:44:07.918Z,1.07
2023-04-12T23:46:39.544Z,1.18
2023-04-12T23:49:11.159Z,1.18
2023-04-12T23:51:42.768Z,1.25
2023-04-12T23:54:14.379Z,1.23
2023-04-12T23:56:45.969Z,1.16
2023-04-12T23:59:17.592Z,1.38
